Time;durP1;ratioP1;P1;durP2;ratioP2;P2;SDS_P1;SDS_P2;PMS_P1;PMS_P2;Temp;Humidity;BMP_temperature;BMP_pressure;BME280_temperature;BME280_humidity;BME280_pressure;Samples;Min_cycle;Max_cycle;Signal;HPM_P1;HPM_P2
2023/01/16 00:01:02;;;;;;;3.97;1.70;;;12.70;99.90;;;;;;10583768;27;20048;-25
2023/01/16 00:06:04;;;;;;;8.63;4.35;;;11.50;99.90;;;;;;10584187;27;20453;-26
2023/01/16 00:11:06;;;;;;;6.57;3.13;;;12.60;99.90;;;;;;10563432;27;20407;-25
2023/01/16 00:16:10;;;;;;;6.45;2.78;;;12.70;99.40;;;;;;10573710;27;20121;-25
2023/01/16 00:21:12;;;;;;;6.15;3.05;;;12.40;99.90;;;;;;10567858;27;20050;-25
2023/01/16 00:26:13;;;;;;;5.68;3.13;;;12.80;99.10;;;;;;10568111;27;20083;-25
2023/01/16 00:31:17;;;;;;;6.90;3.10;;;12.90;99.90;;;;;;10584499;27;20092;-26
2023/01/16 00:36:19;;;;;;;4.40;2.33;;;13.10;98.30;;;;;;10593289;27;20420;-26
2023/01/16 00:41:21;;;;;;;4.60;2.50;;;13.20;96.90;;;;;;10576486;27;20045;-27
2023/01/16 00:46:24;;;;;;;8.43;3.38;;;13.60;92.50;;;;;;10580444;27;20075;-26
2023/01/16 00:51:26;;;;;;;7.60;3.67;;;13.90;94.20;;;;;;10583781;27;20078;-27
2023/01/16 00:56:28;;;;;;;5.40;2.85;;;13.80;93.60;;;;;;10584513;27;20051;-25
2023/01/16 01:01:32;;;;;;;5.45;1.88;;;14.10;93.90;;;;;;10572410;27;20082;-25
2023/01/16 01:06:34;;;;;;;3.38;1.85;;;13.70;94.90;;;;;;10576163;27;20047;-26
2023/01/16 01:11:36;;;;;;;3.47;1.87;;;13.30;93.30;;;;;;10567676;27;20087;-27
2023/01/16 01:16:40;;;;;;;3.97;2.03;;;13.30;97.00;;;;;;10559874;27;20054;-26
2023/01/16 01:21:42;;;;;;;7.38;2.55;;;13.10;97.80;;;;;;10561326;27;20039;-27
2023/01/16 01:26:43;;;;;;;5.33;1.90;;;13.70;95.00;;;;;;10549031;27;20579;-25
2023/01/16 01:31:47;;;;;;;4.38;2.47;;;13.90;94.00;;;;;;10548917;27;20079;-26
2023/01/16 01:36:48;;;;;;;4.50;1.92;;;14.20;93.10;;;;;;10553923;28;20449;-26
2023/01/16 01:41:50;;;;;;;5.30;1.65;;;14.10;92.70;;;;;;10550194;27;20503;-28
2023/01/16 01:46:54;;;;;;;4.32;1.70;;;12.60;94.70;;;;;;10557970;27;20484;-27
2023/01/16 01:51:58;;;;;;;6.05;1.85;;;12.40;97.50;;;;;;10559436;28;20074;-26
2023/01/16 01:57:04;;;;;;;3.63;1.88;;;12.60;91.20;;;;;;10570169;28;20078;-26
2023/01/16 02:02:09;;;;;;;4.63;2.10;;;13.40;95.30;;;;;;10568922;27;20047;-30
2023/01/16 02:07:14;;;;;;;3.38;1.70;;;12.50;99.90;;;;;;10561525;27;20080;-25
2023/01/16 02:12:18;;;;;;;2.70;1.50;;;13.80;94.80;;;;;;10572782;28;20047;-26
2023/01/16 02:23:18;;;;;;;4.55;1.90;;;13.50;95.40;;;;;;10572129;28;20651;-26
2023/01/16 02:28:58;;;;;;;7.32;2.42;;;13.80;94.40;;;;;;10548547;28;20043;-26
2023/01/16 02:34:17;;;;;;;4.05;2.00;;;13.20;83.20;;;;;;10573052;27;20043;-26
2023/01/16 02:39:31;;;;;;;1.75;1.15;;;13.80;94.80;;;;;;10566033;27;20075;-27
2023/01/16 02:44:40;;;;;;;4.82;1.45;;;13.90;93.70;;;;;;10562329;28;20131;-26
2023/01/16 02:49:50;;;;;;;4.32;1.85;;;13.90;94.60;;;;;;10549049;27;20793;-25
2023/01/16 02:54:58;;;;;;;3.53;1.70;;;14.10;93.20;;;;;;10561508;27;20142;-31
2023/01/16 03:00:00;;;;;;;5.10;1.77;;;14.00;93.10;;;;;;10565327;28;20055;-29
2023/01/16 03:05:04;;;;;;;3.40;1.40;;;14.10;93.30;;;;;;10561262;27;20042;-26
2023/01/16 03:10:22;;;;;;;3.83;1.83;;;14.20;92.70;;;;;;10569006;28;20059;-25
2023/01/16 03:15:30;;;;;;;3.55;1.50;;;14.20;92.80;;;;;;10574944;27;20082;-25
2023/01/16 03:20:42;;;;;;;2.15;1.25;;;14.10;92.60;;;;;;10568391;28;20549;-26
2023/01/16 03:25:49;;;;;;;4.93;1.55;;;14.00;93.20;;;;;;10557408;28;20589;-26
2023/01/16 03:30:55;;;;;;;2.78;1.52;;;14.00;93.50;;;;;;10573889;27;20146;-26
2023/01/16 03:36:05;;;;;;;2.65;1.42;;;14.10;93.10;;;;;;10585127;27;20047;-26
2023/01/16 03:41:11;;;;;;;2.50;1.00;;;14.00;93.20;;;;;;10579588;27;20089;-26
2023/01/16 03:46:17;;;;;;;4.72;1.02;;;14.10;92.40;;;;;;10564316;27;20156;-27
2023/01/16 03:51:24;;;;;;;1.75;0.88;;;14.00;92.90;;;;;;10565700;27;20123;-24
2023/01/16 03:56:32;;;;;;;2.08;1.02;;;14.00;93.40;;;;;;10563567;27;20499;-26
2023/01/16 04:01:39;;;;;;;2.63;0.95;;;14.10;93.60;;;;;;10557493;27;20051;-26
2023/01/16 04:06:49;;;;;;;1.45;0.80;;;14.20;91.90;;;;;;10572900;28;20086;-26
2023/01/16 04:11:52;;;;;;;3.13;2.15;;;14.10;93.30;;;;;;10558557;27;20083;-26
2023/01/16 04:16:54;;;;;;;1.20;0.77;;;14.10;93.30;;;;;;10568070;27;20087;-29
2023/01/16 04:21:58;;;;;;;3.38;1.23;;;14.30;93.00;;;;;;10564589;27;20106;-27
2023/01/16 04:26:59;;;;;;;2.15;1.17;;;14.20;93.00;;;;;;10568428;27;20108;-25
2023/01/16 04:32:01;;;;;;;2.75;1.15;;;14.20;92.90;;;;;;10573533;27;20099;-29
2023/01/16 04:37:05;;;;;;;0.90;0.75;;;14.10;92.70;;;;;;10576823;28;20560;-26
2023/01/16 04:42:07;;;;;;;3.65;1.02;;;14.30;93.00;;;;;;10563597;27;20476;-26
2023/01/16 04:47:09;;;;;;;1.40;0.70;;;14.10;92.90;;;;;;10575848;27;20055;-26
2023/01/16 04:52:13;;;;;;;2.20;0.93;;;14.20;93.10;;;;;;10561938;27;20051;-27
2023/01/16 04:57:15;;;;;;;2.30;1.00;;;14.30;93.30;;;;;;10566679;27;20051;-26
2023/01/16 05:02:16;;;;;;;2.92;1.10;;;14.20;92.90;;;;;;10569597;27;20100;-27
2023/01/16 05:07:20;;;;;;;1.65;0.85;;;14.40;93.30;;;;;;10576114;27;20063;-25
2023/01/16 05:12:21;;;;;;;1.27;0.85;;;14.30;93.50;;;;;;10568829;27;20519;-26
2023/01/16 05:17:24;;;;;;;1.05;0.70;;;14.50;93.20;;;;;;10559911;28;20084;-26
2023/01/16 05:22:27;;;;;;;;;;;14.40;93.40;;;;;;10569191;27;20094;-30
2023/01/16 05:27:29;;;;;;;1.38;0.70;;;14.30;94.30;;;;;;10572756;27;20411;-27
2023/01/16 05:32:31;;;;;;;1.42;0.75;;;14.60;93.00;;;;;;10576254;27;20453;-26
2023/01/16 05:37:34;;;;;;;3.78;1.10;;;14.30;94.00;;;;;;10567592;27;20054;-27
2023/01/16 05:42:36;;;;;;;2.65;1.30;;;14.20;94.10;;;;;;10566264;28;20081;-26
2023/01/16 05:47:38;;;;;;;0.60;0.60;;;14.50;93.40;;;;;;10564222;28;20135;-26
2023/01/16 05:52:41;;;;;;;1.87;0.70;;;14.60;93.40;;;;;;10544184;27;20047;-25
2023/01/16 05:57:43;;;;;;;1.30;0.70;;;14.40;94.20;;;;;;10559857;28;20079;-27
2023/01/16 06:02:46;;;;;;;1.13;0.63;;;13.80;96.50;;;;;;10579605;27;20090;-27
2023/01/16 06:07:54;;;;;;;1.60;0.60;;;14.50;94.50;;;;;;10556410;27;20035;-26
2023/01/16 06:12:56;;;;;;;2.42;0.88;;;14.30;94.90;;;;;;10568611;28;20480;-26
2023/01/16 06:17:58;;;;;;;1.38;0.75;;;14.00;95.30;;;;;;10575221;27;20381;-26
2023/01/16 06:23:01;;;;;;;1.10;0.70;;;14.40;94.90;;;;;;10562450;28;20043;-26
2023/01/16 06:28:03;;;;;;;1.27;0.50;;;14.50;94.00;;;;;;10569807;28;20158;-27
2023/01/16 06:33:05;;;;;;;0.73;0.43;;;14.80;94.30;;;;;;10554714;27;20528;-27
2023/01/16 06:38:08;;;;;;;1.23;0.57;;;14.70;94.90;;;;;;10571746;27;20086;-26
2023/01/16 06:43:10;;;;;;;0.93;0.43;;;15.00;94.40;;;;;;10564993;27;20388;-26
2023/01/16 06:48:12;;;;;;;1.30;0.50;;;15.00;94.30;;;;;;10562728;27;20476;-26
2023/01/16 06:53:15;;;;;;;1.60;0.70;;;14.70;95.70;;;;;;10558766;28;20080;-26
2023/01/16 06:58:17;;;;;;;1.63;0.88;;;15.00;94.70;;;;;;10560871;27;20612;-27
2023/01/16 07:25:47;;;;;;;2.53;1.23;;;14.90;96.10;;;;;;10556083;28;20048;-26
2023/01/16 07:30:51;;;;;;;4.38;1.90;;;14.70;96.70;;;;;;10556845;28;20047;-26
2023/01/16 07:35:53;;;;;;;6.22;2.42;;;15.00;95.40;;;;;;10559993;28;20097;-26
2023/01/16 07:40:54;;;;;;;3.15;1.83;;;15.10;95.60;;;;;;10556730;28;20126;-26
2023/01/16 07:45:58;;;;;;;4.93;2.20;;;14.80;95.70;;;;;;10561114;28;20131;-26
2023/01/16 07:51:01;;;;;;;6.45;2.50;;;14.60;97.80;;;;;;10564622;28;20083;-25
2023/01/16 07:56:03;;;;;;;6.93;2.72;;;15.00;95.70;;;;;;10553940;28;20075;-26
2023/01/16 08:01:06;;;;;;;;;;;15.00;95.90;;;;;;10560548;28;20039;-27
2023/01/16 08:06:08;;;;;;;6.13;1.80;;;14.90;95.90;;;;;;10568942;28;19965;-32
2023/01/16 08:16:28;;;;;;;2.97;1.13;;;15.20;94.80;;;;;;10555801;28;20048;-29
2023/01/16 08:21:30;;;;;;;3.47;1.65;;;15.20;95.60;;;;;;10557239;28;20105;-27
2023/01/16 08:26:32;;;;;;;2.88;1.17;;;15.10;95.50;;;;;;10528340;28;20500;-27
2023/01/16 08:31:36;;;;;;;2.88;1.33;;;15.10;95.80;;;;;;10535147;28;20087;-26
2023/01/16 08:36:38;;;;;;;6.80;2.85;;;14.90;94.40;;;;;;10532183;28;20040;-27
2023/01/16 08:52:26;;;;;;;8.38;2.88;;;15.10;95.50;;;;;;10527107;28;20138;-26
2023/01/16 08:57:28;;;;;;;8.25;2.90;;;14.90;96.20;;;;;;10521516;28;20083;-29
2023/01/16 09:02:34;;;;;;;6.30;2.93;;;15.10;95.60;;;;;;10533108;28;20052;-28
2023/01/16 09:07:36;;;;;;;5.80;2.60;;;15.20;95.10;;;;;;10517838;28;20050;-26
2023/01/16 09:17:58;;;;;;;2.67;0.90;;;15.00;95.90;;;;;;10528944;28;20051;-25
2023/01/16 09:23:01;;;;;;;5.28;1.85;;;15.10;95.30;;;;;;10520277;28;20071;-25
2023/01/16 09:28:03;;;;;;;12.02;3.38;;;15.20;94.80;;;;;;10528044;28;20487;-26
2023/01/16 09:33:06;;;;;;;5.10;2.83;;;15.10;95.30;;;;;;10534316;28;20515;-26
2023/01/16 09:38:08;;;;;;;5.97;2.92;;;15.20;95.00;;;;;;10528807;28;20143;-26
2023/01/16 09:43:37;;;;;;;5.90;2.90;;;15.20;95.10;;;;;;10545289;28;20567;-25
2023/01/16 09:48:49;;;;;;;9.50;2.83;;;15.20;95.10;;;;;;10525683;28;20043;-26
2023/01/16 09:59:24;;;;;;;11.45;4.15;;;15.20;94.90;;;;;;10517860;28;20086;-25
2023/01/16 10:04:29;;;;;;;4.07;1.23;;;15.20;95.30;;;;;;10530387;28;20079;-26
2023/01/16 10:09:37;;;;;;;1.65;0.63;;;15.20;95.10;;;;;;10520939;28;20102;-27
2023/01/16 10:14:56;;;;;;;1.42;0.63;;;15.30;95.00;;;;;;10509549;28;20143;-26
2023/01/16 10:20:17;;;;;;;0.70;0.60;;;15.30;94.70;;;;;;10524933;28;20536;-26
2023/01/16 10:25:25;;;;;;;0.40;0.40;;;15.20;95.00;;;;;;10522983;28;20074;-26
2023/01/16 10:30:31;;;;;;;2.13;0.40;;;15.40;94.50;;;;;;10525614;28;20473;-25
2023/01/16 10:35:40;;;;;;;0.70;0.52;;;15.40;94.30;;;;;;10520983;28;20056;-25
2023/01/16 10:40:43;;;;;;;0.40;0.32;;;15.30;94.70;;;;;;10513535;28;20420;-27
2023/01/16 10:51:07;;;;;;;0.40;0.30;;;15.40;94.20;;;;;;10531684;28;20056;-26
2023/01/16 10:56:09;;;;;;;1.73;0.45;;;15.30;94.50;;;;;;10518796;28;20449;-27
2023/01/16 11:01:14;;;;;;;1.03;0.30;;;15.30;94.40;;;;;;10523072;28;20434;-26
2023/01/16 11:06:20;;;;;;;1.30;0.55;;;15.30;94.40;;;;;;10521502;28;20041;-27
2023/01/16 11:22:06;;;;;;;1.90;0.60;;;15.20;94.60;;;;;;10528478;28;20052;-32
2023/01/16 11:27:16;;;;;;;0.45;0.35;;;15.20;94.50;;;;;;10521103;28;20052;-25
2023/01/16 11:32:24;;;;;;;1.23;0.35;;;15.30;94.30;;;;;;10536659;28;20136;-27
2023/01/16 11:37:29;;;;;;;4.57;2.22;;;15.20;94.40;;;;;;10525252;28;20493;-29
2023/01/16 11:47:55;;;;;;;10.15;4.40;;;15.30;93.90;;;;;;10520301;28;20637;-26
2023/01/16 11:52:58;;;;;;;8.80;3.42;;;15.30;93.90;;;;;;10520339;28;20060;-27
2023/01/16 11:58:07;;;;;;;7.60;2.67;;;15.20;93.80;;;;;;10521655;28;20085;-25
2023/01/16 12:04:00;;;;;;;6.88;3.60;;;15.30;93.80;;;;;;10529024;28;20475;-25
2023/01/16 12:09:19;;;;;;;4.05;2.08;;;15.30;93.70;;;;;;10471384;28;20056;-27
2023/01/16 12:14:28;;;;;;;3.15;1.60;;;15.20;94.10;;;;;;10509889;28;20145;-25
2023/01/16 12:19:50;;;;;;;2.72;1.40;;;15.20;94.00;;;;;;10529997;28;20048;-24
2023/01/16 12:25:01;;;;;;;2.65;1.08;;;15.20;93.70;;;;;;10528396;28;20040;-26
2023/01/16 12:30:11;;;;;;;3.55;1.30;;;15.30;93.60;;;;;;10535104;28;20050;-30
2023/01/16 12:35:31;;;;;;;1.10;0.80;;;15.30;93.40;;;;;;10527324;28;20111;-27
2023/01/16 12:43:17;;;;;;;3.33;0.73;;;15.30;93.40;;;;;;10525434;28;20088;-29
2023/01/16 12:46:24;;;;;;;1.48;0.57;;;15.30;93.70;;;;;;10529929;28;20522;-28
2023/01/16 12:51:49;;;;;;;1.27;0.52;;;15.40;93.40;;;;;;10529266;28;20159;-27
2023/01/16 12:57:13;;;;;;;0.60;0.32;;;15.40;93.80;;;;;;10519016;28;20809;-27
2023/01/16 13:02:25;;;;;;;0.30;0.30;;;15.50;94.10;;;;;;10520799;28;20631;-26
2023/01/16 13:07:32;;;;;;;1.70;0.77;;;15.50;94.20;;;;;;10527977;28;20140;-28
2023/01/16 13:18:03;;;;;;;2.85;1.70;;;15.60;93.80;;;;;;10497400;28;20044;-26
2023/01/16 13:23:14;;;;;;;9.65;3.70;;;15.50;94.10;;;;;;10498587;28;20056;-24
2023/01/16 13:28:25;;;;;;;4.35;2.38;;;15.50;94.00;;;;;;10520856;28;20097;-26
2023/01/16 13:33:31;;;;;;;8.25;3.50;;;15.50;93.90;;;;;;10513424;28;20048;-27
2023/01/16 13:38:59;;;;;;;10.90;4.88;;;15.50;93.90;;;;;;10520358;28;20049;-29
2023/01/16 13:49:31;;;;;;;9.48;4.70;;;15.60;94.00;;;;;;10524383;28;20159;-35
2023/01/16 13:54:38;;;;;;;11.20;5.07;;;15.50;93.90;;;;;;10521067;28;20143;-27
2023/01/16 13:59:47;;;;;;;10.25;4.88;;;15.50;93.80;;;;;;10523507;28;20050;-27
2023/01/16 14:05:17;;;;;;;11.00;4.68;;;15.60;93.70;;;;;;10509173;28;20456;-25
2023/01/16 14:10:25;;;;;;;7.80;4.00;;;15.50;93.90;;;;;;10530479;28;20052;-26
2023/01/16 14:21:16;;;;;;;5.78;3.13;;;10.40;99.90;;;;;;10518494;28;20385;-28
2023/01/16 14:26:20;;;;;;;10.07;0.63;;;11.20;99.90;;;;;;10532470;28;20059;-26
2023/01/16 14:31:27;;;;;;;5.40;1.05;;;10.80;99.90;;;;;;10525280;28;20480;-25
2023/01/16 14:36:34;;;;;;;6.93;3.30;;;9.40;99.90;;;;;;10518618;28;20098;-26
2023/01/16 14:58:04;;;;;;;3.72;1.45;;;8.20;99.90;;;;;;10522608;28;19923;-26
2023/01/16 15:03:13;;;;;;;3.33;0.98;;;9.80;99.90;;;;;;10522933;28;20135;-27
2023/01/16 15:08:16;;;;;;;3.17;1.42;;;8.50;99.90;;;;;;10522047;28;20482;-26
2023/01/16 15:13:22;;;;;;;2.83;1.13;;;8.60;99.90;;;;;;10512240;28;20065;-27
2023/01/16 15:23:46;;;;;;;1.75;1.02;;;10.30;99.90;;;;;;10515776;28;20052;-27
2023/01/16 15:28:58;;;;;;;6.23;2.93;;;11.10;99.90;;;;;;10513434;28;20040;-26
2023/01/16 15:34:05;;;;;;;7.43;3.20;;;11.30;99.90;;;;;;10520283;28;20102;-25
2023/01/16 15:39:19;;;;;;;5.40;2.63;;;13.30;99.90;;;;;;10543051;28;20403;-26
2023/01/16 15:49:55;;;;;;;3.63;1.53;;;10.00;99.90;;;;;;10531760;28;20048;-27
2023/01/16 15:54:58;;;;;;;3.70;1.05;;;12.20;99.90;;;;;;10527085;28;20420;-28
2023/01/16 16:00:00;;;;;;;3.53;1.63;;;10.90;99.90;;;;;;10531880;28;20043;-26
2023/01/16 16:05:05;;;;;;;3.72;0.80;;;9.90;99.90;;;;;;10534838;28;20755;-26
2023/01/16 16:11:51;;;;;;;2.33;0.65;;;8.40;99.90;;;;;;10532761;28;20109;-25
2023/01/16 16:20:51;;;;;;;1.73;0.73;;;7.70;99.90;;;;;;10522748;28;20547;-26
2023/01/16 16:25:57;;;;;;;1.05;0.70;;;9.00;99.90;;;;;;10520934;28;20036;-26
2023/01/16 16:31:01;;;;;;;5.07;1.00;;;8.40;99.90;;;;;;10498150;28;20049;-26
2023/01/16 16:36:05;;;;;;;0.70;0.60;;;8.50;99.90;;;;;;10495653;28;20065;-26
2023/01/16 16:47:22;;;;;;;1.65;0.80;;;8.90;99.90;;;;;;10459890;28;20052;-27
2023/01/16 16:52:39;;;;;;;0.90;0.50;;;8.20;99.90;;;;;;10516882;28;20484;-26
2023/01/16 16:57:43;;;;;;;2.72;0.70;;;8.60;99.90;;;;;;10512601;28;20047;-28
2023/01/16 17:02:47;;;;;;;6.13;1.00;;;7.70;99.90;;;;;;10521377;28;20044;-27
2023/01/16 17:07:51;;;;;;;6.78;0.57;;;8.10;99.90;;;;;;10530256;28;20496;-26
2023/01/16 17:12:53;;;;;;;1.30;0.80;;;7.50;99.90;;;;;;10528360;28;20143;-26
2023/01/16 17:17:57;;;;;;;1.58;0.70;;;9.00;99.90;;;;;;10529375;28;20047;-27
2023/01/16 17:23:00;;;;;;;0.85;0.60;;;8.10;99.90;;;;;;10522286;28;20040;-25
2023/01/16 17:28:02;;;;;;;6.30;0.68;;;10.10;99.90;;;;;;10516632;28;20047;-25
2023/01/16 17:33:09;;;;;;;2.00;0.80;;;9.90;99.90;;;;;;10537145;28;20553;-25
2023/01/16 17:38:14;;;;;;;4.35;1.45;;;9.40;99.90;;;;;;10510486;28;20059;-27
2023/01/16 17:48:38;;;;;;;7.10;1.73;;;9.50;99.90;;;;;;10525987;28;20047;-25
2023/01/16 17:53:42;;;;;;;4.65;1.20;;;7.00;99.90;;;;;;10510589;28;20105;-26
2023/01/16 17:58:49;;;;;;;4.20;0.98;;;8.40;99.90;;;;;;10516523;28;20043;-26
2023/01/16 18:03:55;;;;;;;3.38;1.35;;;7.60;99.90;;;;;;10521617;28;20464;-26
2023/01/16 18:08:58;;;;;;;5.93;0.70;;;9.00;99.90;;;;;;10530348;28;20793;-26
2023/01/16 18:19:19;;;;;;;6.20;1.20;;;8.30;99.90;;;;;;10524609;28;20355;-24
2023/01/16 18:24:22;;;;;;;9.05;1.77;;;6.20;99.90;;;;;;10528373;28;20044;-28
2023/01/16 18:29:24;;;;;;;;;;;5.10;99.90;;;;;;10516430;28;20094;-25
2023/01/16 18:34:26;;;;;;;12.18;2.20;;;5.60;99.90;;;;;;10526706;28;19928;-26
2023/01/16 19:06:10;;;;;;;3.30;1.30;;;6.80;99.90;;;;;;10520357;28;20044;-26
2023/01/16 19:11:13;;;;;;;8.27;1.48;;;8.40;99.90;;;;;;10536646;28;20068;-26
2023/01/16 19:21:34;;;;;;;4.47;1.77;;;7.50;99.90;;;;;;10509083;28;20416;-28
2023/01/16 19:26:41;;;;;;;8.98;2.00;;;9.10;99.90;;;;;;10526671;28;20059;-26
2023/01/16 19:31:44;;;;;;;7.07;1.23;;;8.90;99.90;;;;;;10506859;28;20683;-26
2023/01/16 19:36:46;;;;;;;4.60;1.20;;;7.10;99.90;;;;;;10516885;28;20547;-27
2023/01/16 19:47:10;;;;;;;5.47;1.65;;;8.40;99.90;;;;;;10517445;28;20412;-25
2023/01/16 19:52:12;;;;;;;9.15;2.60;;;8.40;99.90;;;;;;10506910;28;20493;-32
2023/01/16 19:57:15;;;;;;;6.13;1.27;;;8.00;99.90;;;;;;10505104;28;20509;-25
2023/01/16 20:02:18;;;;;;;;;;;7.30;99.90;;;;;;10518069;28;20040;-25
2023/01/16 20:07:20;;;;;;;10.98;1.17;;;8.20;99.90;;;;;;10517555;28;19959;-24
2023/01/16 20:12:26;;;;;;;5.53;1.00;;;7.30;99.90;;;;;;10513715;28;20109;-25
2023/01/16 20:17:30;;;;;;;9.63;2.03;;;10.20;99.90;;;;;;10517619;28;20112;-25
2023/01/16 20:22:33;;;;;;;10.05;1.08;;;8.90;99.90;;;;;;10525136;28;20537;-25
2023/01/16 20:27:37;;;;;;;9.53;1.13;;;6.00;99.90;;;;;;10520254;28;20055;-25
2023/01/16 20:32:39;;;;;;;13.65;1.77;;;7.20;99.90;;;;;;10521595;28;20478;-29
2023/01/16 20:37:41;;;;;;;11.80;1.58;;;7.50;99.90;;;;;;10525445;28;20464;-25
2023/01/16 20:48:04;;;;;;;10.30;2.53;;;6.70;99.90;;;;;;10530192;28;20476;-25
2023/01/16 20:53:05;;;;;;;20.83;2.40;;;6.60;99.90;;;;;;10525201;28;20866;-26
2023/01/16 20:58:09;;;;;;;10.68;1.90;;;6.40;99.90;;;;;;10530071;28;20072;-26
2023/01/16 21:03:11;;;;;;;10.15;2.00;;;6.70;99.90;;;;;;10527767;28;20821;-25
2023/01/16 21:08:13;;;;;;;9.40;1.25;;;6.20;99.90;;;;;;10517617;28;20067;-25
2023/01/16 21:23:56;;;;;;;5.20;0.93;;;8.50;99.90;;;;;;10528491;28;20123;-25
2023/01/16 21:28:59;;;;;;;9.23;1.17;;;7.10;99.90;;;;;;10530786;28;20076;-25
2023/01/16 21:34:01;;;;;;;5.43;1.63;;;7.50;99.90;;;;;;10528322;28;20498;-24
2023/01/16 21:39:03;;;;;;;13.98;1.92;;;7.30;99.90;;;;;;10530367;28;20340;-25
2023/01/16 21:49:28;;;;;;;8.97;1.00;;;7.40;99.90;;;;;;10529894;28;20064;-24
2023/01/16 21:54:30;;;;;;;6.20;1.13;;;6.40;99.90;;;;;;10513981;28;20594;-25
2023/01/16 21:59:33;;;;;;;11.63;1.70;;;7.10;99.90;;;;;;10525054;28;20040;-24
2023/01/16 22:04:35;;;;;;;7.10;1.02;;;7.30;99.90;;;;;;10528634;28;20052;-25
2023/01/16 22:09:37;;;;;;;10.18;1.73;;;6.70;99.90;;;;;;10532473;28;20495;-25
2023/01/16 22:20:23;;;;;;;5.32;1.83;;;5.80;99.90;;;;;;10529514;28;20040;-26
2023/01/16 22:25:25;;;;;;;10.68;1.65;;;4.90;99.90;;;;;;10530820;28;20083;-23
2023/01/16 22:30:28;;;;;;;5.85;1.38;;;5.20;99.90;;;;;;10529838;28;20147;-24
2023/01/16 22:35:30;;;;;;;;;;;5.30;99.90;;;;;;10526429;28;20115;-25
2023/01/16 22:40:34;;;;;;;4.13;0.98;;;5.10;99.90;;;;;;10529917;28;19932;-25
2023/01/16 22:51:06;;;;;;;12.88;1.55;;;4.80;99.90;;;;;;10521218;28;20040;-26
2023/01/16 22:56:09;;;;;;;2.10;0.73;;;5.60;99.90;;;;;;10539687;28;20087;-25
2023/01/16 23:01:15;;;;;;;6.85;1.38;;;4.10;99.90;;;;;;10520431;28;20048;-26
2023/01/16 23:06:17;;;;;;;3.30;0.80;;;5.50;99.90;;;;;;10531072;28;20124;-26
2023/01/16 23:11:23;;;;;;;6.05;0.95;;;6.70;99.90;;;;;;10531176;28;20060;-28
2023/01/16 23:16:28;;;;;;;17.83;1.70;;;7.90;99.90;;;;;;10521028;28;20050;-25
2023/01/16 23:21:32;;;;;;;8.52;1.38;;;6.40;99.90;;;;;;10535354;28;20048;-26
2023/01/16 23:26:34;;;;;;;4.38;1.02;;;6.20;99.90;;;;;;10535207;28;20044;-25
2023/01/16 23:31:38;;;;;;;6.43;1.05;;;6.10;99.90;;;;;;10510002;28;20828;-25
2023/01/16 23:36:41;;;;;;;6.15;1.23;;;7.20;99.90;;;;;;10514855;28;20135;-25
2023/01/16 23:47:09;;;;;;;6.72;1.05;;;6.40;99.90;;;;;;10511829;28;20074;-25
2023/01/16 23:52:12;;;;;;;3.28;0.90;;;8.20;99.90;;;;;;10522946;28;20093;-25
2023/01/16 23:57:16;;;;;;;4.70;1.02;;;9.70;99.90;;;;;;10532146;28;20044;-24
